Ship Status Report: callsign LYRZ

sailwx.info

Track history (hours):
 
Tides and Currents Weather Stations Pressure Air Temp Water Temp Dewpoint Dewpoint Depression Visibility Wind Speed Wind Dir Waves Ship Positions

Callsign LYRZ (name unknown)

Last reported at 2015-Jan-30 13:33 UTC. Time now 2015-Jan-31 17:48 UTC.
Position N 39°44' E 002°12'.

Date/timePositionNaut miles runAvg speedWind from/ knotsBaromVisibWave heightAir tempDewpointWater temp
2015-Jan-30 13:33N 39°44' E 002°12'5 5.2
2015-Jan-30 12:33N 39°45' E 002°18'5 4.8
2015-Jan-30 11:33N 39°46' E 002°24'4 4.3
2015-Jan-30 10:33N 39°47' E 002°30'4 4.4
2015-Jan-30 09:33N 39°49' E 002°35'4 4.4
2015-Jan-30 08:33N 39°51' E 002°40'4 4.0
2015-Jan-30 07:33N 39°52' E 002°45'3 3.5
2015-Jan-30 06:33N 39°54' E 002°49'3 3.1
2015-Jan-30 05:32N 39°56' E 002°52'3 2.9
2015-Jan-30 04:22N 39°58' E 002°56'26 3.8
2015-Jan-29 21:33N 39°53' E 003°29'  
2015-Jan-25 18:10N 43°16' E 005°03'5 7.6
2015-Jan-25 17:33N 43°19' E 004°58'7 6.9
2015-Jan-25 16:33N 43°23' E 004°51'2 1.5
2015-Jan-25 15:23N 43°23' E 004°48'0 0.0
2015-Jan-25 14:31N 43°23' E 004°48'0 0.0
2015-Jan-25 13:11N 43°23' E 004°48'0 0.0
2015-Jan-24 19:23N 43°23' E 004°48'0 0.0
2015-Jan-23 17:13N 43°23' E 004°48'0 0.0
2015-Jan-23 16:28N 43°23' E 004°48'  
Track history (hours):
 
Tides and Currents Weather Stations Pressure Air Temp Water Temp Dewpoint Dewpoint Depression Visibility Wind Speed Wind Dir Waves Ship Positions

Callsign LYRZ (name unknown)

Last reported at 2015-Jan-30 13:33 UTC. Time now 2015-Jan-31 17:48 UTC.
Position N 39°44' E 002°12'.

Date/timePositionNaut miles runAvg speedWind from/ knotsBaromVisibWave heightAir tempDewpointWater temp
2015-Jan-30 13:33N 39°44' E 002°12'5 5.2
2015-Jan-30 12:33N 39°45' E 002°18'5 4.8
2015-Jan-30 11:33N 39°46' E 002°24'4 4.3
2015-Jan-30 10:33N 39°47' E 002°30'4 4.4
2015-Jan-30 09:33N 39°49' E 002°35'4 4.4
2015-Jan-30 08:33N 39°51' E 002°40'4 4.0
2015-Jan-30 07:33N 39°52' E 002°45'3 3.5
2015-Jan-30 06:33N 39°54' E 002°49'3 3.1
2015-Jan-30 05:32N 39°56' E 002°52'3 2.9
2015-Jan-30 04:22N 39°58' E 002°56'26 3.8
2015-Jan-29 21:33N 39°53' E 003°29'  
2015-Jan-25 18:10N 43°16' E 005°03'5 7.6
2015-Jan-25 17:33N 43°19' E 004°58'7 6.9
2015-Jan-25 16:33N 43°23' E 004°51'2 1.5
2015-Jan-25 15:23N 43°23' E 004°48'0 0.0
2015-Jan-25 14:31N 43°23' E 004°48'0 0.0
2015-Jan-25 13:11N 43°23' E 004°48'0 0.0
2015-Jan-24 19:23N 43°23' E 004°48'0 0.0
2015-Jan-23 17:13N 43°23' E 004°48'0 0.0
2015-Jan-23 16:28N 43°23' E 004°48'  

Dump ship's entire track history